Main page
METAR-TAF:

METAR-TAF

Airports :

Shanghai-Pudong, China

Shanghai Pudong International Airport

latitude: 31-07N, longitude: 121-46E, elevation: 4 m

Current weather observation

The report was made 28 minutes ago, at 04:30 UTC
Wind 10 kt from the East
Temperature 37°C
Humidity 64%
Pressure 1009 hPa
Visibility 10 km or more
Few clouds at a height of 3000 ft, Towering cumulus.
Few clouds at a height of 3000 ft

METAR: ZSPD 220430Z 10005MPS 9999 FEW030TCU FEW030 37/29 Q1009 NOSIG

Time: 12:58 (04:58 UTC)

Forecast

The report was made 7 hours and 47 minutes ago, at 21:11 UTC
Forecast valid from 22 at 00 UTC to 22 at 24 UTC
Wind 8 kt from the South
Visibility: 6000 m
Scattered clouds at a height of 2000 ft

TAF: ZSPD 212111Z 2200/2224 18004MPS 6000 SCT020 TX38/2206Z TN29/2221Z

Weather observations and forecasts of more than 4000 airports (METAR and TAF reports).

The available stations are represented by yellow and red dots on the map.

Hover mouse over dot to see the name of the station.

Then click to see weather observations and forecasts.

To change the map : click on the green buttons with a black cross to zoom in, on the green button with a dash to zoom out, or on the green arrows for adjacent maps.


METAR-TAF: